EZY69RJ EGKK-DTNH
Flight info
| Callsign | EZY69RJ |
|---|---|
| Flight time | N/A |
| Altitude | 35000 |
| Route | SFD Y47 BENBO UL612 OGULO DCT OKASI DCT OKEKO DCT MOU DCT MADIV DCT MOKIP DCT TUFTA DCT KOGAS DCT MEDAM DCT NITAM DCT MOGBO DCT ENOBA DCT OLETI DCT EVROG DCT PODOX DCT VELAD DCT ABKON DCT PININ DCT TUNEX UM738 DIDON G727 ATLEL ATLEL1E |
| Aircraft | A21N/M-SDE2E3FGHIJ1RWXYZ/LB1G1 |
Departure
| Time | 2026-05-04 18:18 |
|---|---|
| Airport | London Gatwick Airport (EGKK) |
Arrival
| Time | N/A |
|---|---|
| Airport | Enfidha - Hammamet International Airport (DTNH) |
| Time | Latitude | Longitude | Altitude | Speed | Heading |
|---|---|---|---|---|---|
| 2026-05-04 17:39 | 51.15883 | -0.17315 | 200 ft | 0 kts | 348° |
| 2026-05-04 17:58 | 51.15875 | -0.17312 | 200 ft | 2 kts | 346° |
| 2026-05-04 17:58 | 51.15860 | -0.17306 | 200 ft | 2 kts | 348° |
| 2026-05-04 17:58 | 51.15845 | -0.17301 | 200 ft | 2 kts | 347° |
| 2026-05-04 17:59 | 51.15831 | -0.17296 | 200 ft | 2 kts | 348° |
| 2026-05-04 17:59 | 51.15816 | -0.17291 | 200 ft | 1 kts | 347° |
| 2026-05-04 17:59 | 51.15797 | -0.17270 | 200 ft | 2 kts | 286° |
| 2026-05-04 18:00 | 51.15796 | -0.17255 | 200 ft | 0 kts | 259° |
| 2026-05-04 18:00 | 51.15798 | -0.17244 | 200 ft | 0 kts | 257° |
| 2026-05-04 18:03 | 51.15798 | -0.17248 | 200 ft | 0 kts | 258° |
| 2026-05-04 18:03 | 51.15794 | -0.17274 | 200 ft | 4 kts | 259° |
| 2026-05-04 18:04 | 51.15785 | -0.17350 | 200 ft | 9 kts | 258° |
| 2026-05-04 18:04 | 51.15767 | -0.17472 | 200 ft | 12 kts | 248° |
| 2026-05-04 18:04 | 51.15612 | -0.17461 | 200 ft | 12 kts | 167° |
| 2026-05-04 18:05 | 51.15544 | -0.17493 | 200 ft | 11 kts | 245° |
| 2026-05-04 18:05 | 51.15524 | -0.17622 | 200 ft | 13 kts | 258° |
| 2026-05-04 18:05 | 51.15503 | -0.17777 | 200 ft | 15 kts | 257° |
| 2026-05-04 18:05 | 51.15478 | -0.17950 | 200 ft | 16 kts | 257° |
| 2026-05-04 18:06 | 51.15416 | -0.18273 | 200 ft | 11 kts | 205° |
| 2026-05-04 18:06 | 51.15333 | -0.18258 | 200 ft | 13 kts | 168° |
| 2026-05-04 18:06 | 51.15235 | -0.18224 | 200 ft | 13 kts | 167° |
| 2026-05-04 18:07 | 51.15187 | -0.18298 | 200 ft | 12 kts | 268° |
| 2026-05-04 18:07 | 51.15170 | -0.18457 | 200 ft | 16 kts | 258° |
| 2026-05-04 18:07 | 51.15143 | -0.18663 | 200 ft | 21 kts | 256° |
| 2026-05-04 18:07 | 51.15110 | -0.18892 | 200 ft | 21 kts | 258° |
| 2026-05-04 18:08 | 51.15078 | -0.19126 | 200 ft | 21 kts | 258° |
| 2026-05-04 18:08 | 51.15033 | -0.19270 | 200 ft | 13 kts | 188° |
| 2026-05-04 18:08 | 51.14957 | -0.19319 | 200 ft | 13 kts | 253° |
| 2026-05-04 18:08 | 51.14935 | -0.19493 | 200 ft | 18 kts | 262° |
| 2026-05-04 18:09 | 51.14865 | -0.19995 | 200 ft | 24 kts | 258° |
| 2026-05-04 18:09 | 51.14811 | -0.20377 | 200 ft | 5 kts | 257° |
| 2026-05-04 18:10 | 51.14801 | -0.20445 | 200 ft | 7 kts | 257° |
| 2026-05-04 18:10 | 51.14789 | -0.20538 | 200 ft | 10 kts | 258° |
| 2026-05-04 18:10 | 51.14772 | -0.20666 | 200 ft | 13 kts | 257° |
| 2026-05-04 18:10 | 51.14750 | -0.20826 | 200 ft | 15 kts | 258° |
| 2026-05-04 18:11 | 51.14727 | -0.20997 | 200 ft | 15 kts | 257° |
| 2026-05-04 18:11 | 51.14703 | -0.21170 | 200 ft | 14 kts | 258° |
| 2026-05-04 18:11 | 51.14698 | -0.21206 | 200 ft | 1 kts | 258° |
| 2026-05-04 18:11 | 51.14691 | -0.21253 | 200 ft | 5 kts | 258° |
| 2026-05-04 18:12 | 51.14681 | -0.21309 | 200 ft | 1 kts | 241° |
| 2026-05-04 18:12 | 51.14680 | -0.21312 | 200 ft | 0 kts | 235° |
| 2026-05-04 18:12 | 51.14678 | -0.21316 | 200 ft | 1 kts | 233° |
| 2026-05-04 18:13 | 51.14670 | -0.21326 | 200 ft | 0 kts | 211° |
| 2026-05-04 18:13 | 51.14665 | -0.21330 | 200 ft | 1 kts | 204° |
| 2026-05-04 18:13 | 51.14623 | -0.21329 | 200 ft | 0 kts | 169° |
| 2026-05-04 18:15 | 51.14620 | -0.21328 | 200 ft | 2 kts | 168° |
| 2026-05-04 18:16 | 51.14572 | -0.21304 | 200 ft | 11 kts | 156° |
| 2026-05-04 18:16 | 51.14515 | -0.21221 | 200 ft | 6 kts | 109° |
| 2026-05-04 18:16 | 51.14517 | -0.21182 | 200 ft | 0 kts | 77° |
| 2026-05-04 18:17 | 51.14535 | -0.21056 | 200 ft | 38 kts | 77° |
| 2026-05-04 18:17 | 51.14642 | -0.20283 | 200 ft | 102 kts | 78° |
| 2026-05-04 18:17 | 51.15073 | -0.17067 | 521 ft | 170 kts | 78° |
| 2026-05-04 18:18 | 51.15308 | -0.15223 | 1073 ft | 176 kts | 77° |
| 2026-05-04 18:18 | 51.15568 | -0.13316 | 1720 ft | 178 kts | 76° |
| 2026-05-04 18:18 | 51.15832 | -0.11394 | 2201 ft | 187 kts | 76° |
| 2026-05-04 18:18 | 51.16074 | -0.09212 | 2497 ft | 210 kts | 90° |
| 2026-05-04 18:19 | 51.14395 | -0.05210 | 3338 ft | 250 kts | 156° |
| 2026-05-04 18:19 | 51.12657 | -0.04525 | 3800 ft | 267 kts | 169° |
| 2026-05-04 18:19 | 51.10817 | -0.03978 | 4489 ft | 273 kts | 168° |
| 2026-05-04 18:20 | 51.08965 | -0.03304 | 5253 ft | 275 kts | 163° |
| 2026-05-04 18:20 | 51.07142 | -0.02465 | 5756 ft | 276 kts | 163° |
| 2026-05-04 18:20 | 51.05283 | -0.01584 | 5977 ft | 276 kts | 163° |
| 2026-05-04 18:20 | 51.03447 | -0.00711 | 5979 ft | 276 kts | 163° |
| 2026-05-04 18:21 | 51.01624 | 0.00154 | 5980 ft | 275 kts | 163° |
| 2026-05-04 18:21 | 50.99785 | 0.01026 | 5986 ft | 275 kts | 162° |
| 2026-05-04 18:21 | 50.97960 | 0.01894 | 5986 ft | 275 kts | 162° |
| 2026-05-04 18:21 | 50.96120 | 0.02769 | 5985 ft | 275 kts | 162° |
| 2026-05-04 18:22 | 50.94294 | 0.03634 | 5984 ft | 275 kts | 162° |
| 2026-05-04 18:22 | 50.92469 | 0.04497 | 5974 ft | 275 kts | 162° |
| 2026-05-04 18:22 | 50.90635 | 0.05361 | 5983 ft | 275 kts | 162° |
| 2026-05-04 18:22 | 50.88805 | 0.06222 | 5984 ft | 276 kts | 162° |
| 2026-05-04 18:23 | 50.86941 | 0.07100 | 6285 ft | 284 kts | 162° |
| 2026-05-04 18:23 | 50.85054 | 0.07986 | 6787 ft | 280 kts | 163° |
| 2026-05-04 18:23 | 50.83212 | 0.08848 | 6966 ft | 280 kts | 162° |
| 2026-05-04 18:23 | 50.81347 | 0.09719 | 6973 ft | 279 kts | 162° |
| 2026-05-04 18:24 | 50.79487 | 0.10589 | 6974 ft | 279 kts | 162° |
| 2026-05-04 18:24 | 50.77639 | 0.11447 | 6978 ft | 280 kts | 164° |
| 2026-05-04 18:24 | 50.75672 | 0.11980 | 7299 ft | 288 kts | 171° |
| 2026-05-04 18:24 | 50.73718 | 0.12481 | 8192 ft | 287 kts | 169° |
| 2026-05-04 18:25 | 50.71766 | 0.13017 | 9036 ft | 287 kts | 169° |
| 2026-05-04 18:25 | 50.69814 | 0.13552 | 9777 ft | 290 kts | 169° |
| 2026-05-04 18:25 | 50.67818 | 0.14093 | 10458 ft | 295 kts | 169° |
| 2026-05-04 18:25 | 50.65740 | 0.14649 | 10833 ft | 311 kts | 169° |
| 2026-05-04 18:26 | 50.63559 | 0.15227 | 11214 ft | 326 kts | 169° |
| 2026-05-04 18:26 | 50.61325 | 0.15816 | 11843 ft | 331 kts | 169° |
| 2026-05-04 18:26 | 50.59065 | 0.16412 | 12551 ft | 334 kts | 169° |
| 2026-05-04 18:26 | 50.56764 | 0.17016 | 13240 ft | 337 kts | 169° |
| 2026-05-04 18:27 | 50.54442 | 0.17627 | 13898 ft | 340 kts | 169° |
| 2026-05-04 18:27 | 50.52130 | 0.18234 | 14559 ft | 343 kts | 169° |
| 2026-05-04 18:27 | 50.49759 | 0.18857 | 15228 ft | 345 kts | 169° |
| 2026-05-04 18:27 | 50.47419 | 0.19471 | 15871 ft | 347 kts | 169° |
| 2026-05-04 18:28 | 50.45035 | 0.20094 | 16501 ft | 350 kts | 169° |
| 2026-05-04 18:28 | 50.42645 | 0.20715 | 17127 ft | 352 kts | 169° |
| 2026-05-04 18:28 | 50.40213 | 0.21345 | 17771 ft | 353 kts | 169° |
| 2026-05-04 18:28 | 50.37790 | 0.21974 | 18395 ft | 355 kts | 168° |
| 2026-05-04 18:29 | 50.35387 | 0.22599 | 18997 ft | 357 kts | 169° |
| 2026-05-04 18:29 | 50.32927 | 0.23241 | 19601 ft | 358 kts | 169° |
| 2026-05-04 18:29 | 50.30490 | 0.23873 | 20179 ft | 360 kts | 169° |
| 2026-05-04 18:29 | 50.27999 | 0.24521 | 20745 ft | 362 kts | 169° |
| 2026-05-04 18:30 | 50.23044 | 0.25834 | 21841 ft | 365 kts | 166° |
| 2026-05-04 18:30 | 50.20630 | 0.26973 | 22366 ft | 366 kts | 158° |
| 2026-05-04 18:30 | 50.18338 | 0.28684 | 22863 ft | 368 kts | 150° |
| 2026-05-04 18:31 | 50.16175 | 0.30813 | 23341 ft | 371 kts | 147° |
| 2026-05-04 18:31 | 50.14029 | 0.33024 | 23819 ft | 373 kts | 147° |
| 2026-05-04 18:31 | 50.11862 | 0.35263 | 24302 ft | 375 kts | 147° |
| 2026-05-04 18:31 | 50.09676 | 0.37514 | 24723 ft | 378 kts | 147° |
| 2026-05-04 18:32 | 50.07465 | 0.39787 | 25153 ft | 381 kts | 147° |
| 2026-05-04 18:32 | 50.05254 | 0.42051 | 25570 ft | 384 kts | 147° |
| 2026-05-04 18:32 | 50.03038 | 0.44318 | 25980 ft | 387 kts | 147° |
| 2026-05-04 18:32 | 50.00796 | 0.46608 | 26408 ft | 388 kts | 147° |
| 2026-05-04 18:33 | 49.98534 | 0.48916 | 26801 ft | 391 kts | 147° |
| 2026-05-04 18:33 | 49.96252 | 0.51242 | 27163 ft | 394 kts | 147° |
| 2026-05-04 18:33 | 49.93966 | 0.53569 | 27537 ft | 396 kts | 147° |
| 2026-05-04 18:33 | 49.91646 | 0.55925 | 27908 ft | 398 kts | 147° |
| 2026-05-04 18:34 | 49.89352 | 0.58254 | 28244 ft | 401 kts | 148° |
| 2026-05-04 18:34 | 49.87022 | 0.60638 | 28584 ft | 403 kts | 146° |
| 2026-05-04 18:34 | 49.84740 | 0.63198 | 28914 ft | 406 kts | 143° |
| 2026-05-04 18:34 | 49.82538 | 0.65936 | 29241 ft | 409 kts | 142° |
| 2026-05-04 18:35 | 49.80327 | 0.68722 | 29566 ft | 411 kts | 142° |
| 2026-05-04 18:35 | 49.78116 | 0.71502 | 29867 ft | 413 kts | 142° |
| 2026-05-04 18:35 | 49.75881 | 0.74308 | 30178 ft | 415 kts | 142° |
| 2026-05-04 18:35 | 49.73667 | 0.77086 | 30489 ft | 417 kts | 142° |
| 2026-05-04 18:36 | 49.71401 | 0.79927 | 30791 ft | 418 kts | 142° |
| 2026-05-04 18:36 | 49.69145 | 0.82752 | 31053 ft | 420 kts | 142° |
| 2026-05-04 18:36 | 49.66874 | 0.85596 | 31340 ft | 421 kts | 142° |
| 2026-05-04 18:36 | 49.64650 | 0.88378 | 31671 ft | 419 kts | 143° |
| 2026-05-04 18:37 | 49.62377 | 0.91218 | 32020 ft | 418 kts | 143° |
| 2026-05-04 18:37 | 49.60107 | 0.94047 | 32341 ft | 417 kts | 143° |
| 2026-05-04 18:37 | 49.57877 | 0.96822 | 32635 ft | 416 kts | 143° |
| 2026-05-04 18:37 | 49.55619 | 0.99631 | 32910 ft | 416 kts | 143° |
| 2026-05-04 18:38 | 49.53402 | 1.02385 | 33187 ft | 415 kts | 143° |
| 2026-05-04 18:38 | 49.51152 | 1.05175 | 33465 ft | 414 kts | 143° |
| 2026-05-04 18:38 | 49.48935 | 1.07923 | 33715 ft | 413 kts | 144° |
| 2026-05-04 18:38 | 49.46697 | 1.10692 | 33990 ft | 412 kts | 144° |
| 2026-05-04 18:39 | 49.44482 | 1.13427 | 34240 ft | 411 kts | 144° |
| 2026-05-04 18:39 | 49.42250 | 1.16181 | 34453 ft | 410 kts | 144° |
| 2026-05-04 18:39 | 49.40039 | 1.18908 | 34649 ft | 410 kts | 144° |
| 2026-05-04 18:39 | 49.37814 | 1.21647 | 34841 ft | 410 kts | 144° |
| 2026-05-04 18:40 | 49.35616 | 1.24348 | 35000 ft | 409 kts | 144° |
| 2026-05-04 18:40 | 49.33386 | 1.27086 | 35149 ft | 409 kts | 144° |
| 2026-05-04 18:40 | 49.31182 | 1.29789 | 35294 ft | 409 kts | 144° |
| 2026-05-04 18:40 | 49.28951 | 1.32521 | 35444 ft | 409 kts | 144° |